Time;durP1;ratioP1;P1;durP2;ratioP2;P2;SDS_P1;SDS_P2;PMS_P1;PMS_P2;Temp;Humidity;BMP_temperature;BMP_pressure;BME280_temperature;BME280_humidity;BME280_pressure;Samples;Min_cycle;Max_cycle;Signal;HPM_P1;HPM_P2
2024/04/02 00:00:44;;;;;;;1.88;1.70;;;;;;;10.16;76.73;97059.72;5052192;28;20118;-76
2024/04/02 00:03:11;;;;;;;4.20;1.50;;;;;;;10.12;76.91;97053.28;5033910;28;20028;-75
2024/04/02 00:05:38;;;;;;;1.60;1.42;;;;;;;10.21;76.32;97056.22;5035739;28;20027;-76
2024/04/02 00:08:06;;;;;;;1.60;1.50;;;;;;;10.17;76.60;97052.47;5038726;28;20040;-76
2024/04/02 00:10:32;;;;;;;2.97;1.30;;;;;;;10.20;76.57;97063.47;5038851;28;20029;-76
2024/04/02 00:12:58;;;;;;;2.47;1.67;;;;;;;10.25;76.15;97062.66;5056564;28;20076;-76
2024/04/02 00:15:23;;;;;;;1.63;1.52;;;;;;;10.07;76.56;97049.72;5055602;28;20071;-76
2024/04/02 00:17:49;;;;;;;1.58;1.40;;;;;;;10.25;76.53;97062.66;5038389;28;20032;-77
2024/04/02 00:20:14;;;;;;;1.50;1.38;;;;;;;10.19;76.53;97058.38;5022135;28;20055;-76
2024/04/02 00:22:43;;;;;;;1.52;1.40;;;;;;;10.25;76.71;97068.88;5025409;28;20588;-75
2024/04/02 00:25:09;;;;;;;1.67;1.40;;;;;;;10.29;76.29;97079.91;5038405;28;20028;-77
2024/04/02 00:27:34;;;;;;;2.10;1.95;;;;;;;10.14;75.91;97058.38;5038319;28;20032;-77
2024/04/02 00:30:00;;;;;;;1.65;1.48;;;;;;;10.26;76.31;97075.06;5038620;28;20031;-77
2024/04/02 00:32:25;;;;;;;2.70;1.58;;;;;;;10.20;76.81;97082.31;5037941;28;20032;-77
2024/04/02 00:34:50;;;;;;;1.38;1.25;;;;;;;10.22;76.55;97076.69;5028573;28;20032;-76
2024/04/02 00:37:16;;;;;;;1.63;1.52;;;;;;;10.17;76.14;97071.28;5055155;28;20701;-76
2024/04/02 00:39:45;;;;;;;1.90;1.50;;;;;;;10.25;76.58;97086.88;5030114;28;20031;-77
2024/04/02 00:42:11;;;;;;;2.28;1.48;;;;;;;10.20;76.45;97082.31;5027164;28;20053;-75
2024/04/02 00:44:36;;;;;;;2.78;1.85;;;;;;;10.16;76.80;97086.63;5038554;28;20484;-75
2024/04/02 00:47:02;;;;;;;1.65;1.48;;;;;;;10.13;76.19;97086.34;5038366;28;20072;-76
2024/04/02 00:49:30;;;;;;;1.85;1.30;;;;;;;10.22;76.50;97090.13;5037829;28;20118;-77
2024/04/02 00:51:55;;;;;;;2.00;1.45;;;;;;;10.25;76.32;97094.97;5038314;28;20082;-77
2024/04/02 00:54:21;;;;;;;2.03;1.25;;;;;;;10.21;76.58;97083.94;5038054;28;20452;-77
2024/04/02 00:56:46;;;;;;;2.88;1.50;;;;;;;10.22;76.46;97090.13;5018588;28;20103;-76
2024/04/02 00:59:12;;;;;;;3.10;1.50;;;;;;;10.21;76.60;97104.66;5017837;28;20032;-75
2024/04/02 01:01:37;;;;;;;2.40;1.52;;;;;;;10.21;76.87;97096.56;5052751;28;20034;-76
2024/04/02 01:04:03;;;;;;;1.90;1.40;;;;;;;10.22;76.60;97107.06;5038039;28;20024;-76
2024/04/02 01:06:29;;;;;;;2.15;1.40;;;;;;;10.27;76.02;97108.94;5034859;28;20071;-76
2024/04/02 01:08:55;;;;;;;1.75;1.45;;;;;;;10.19;76.26;97106.81;5034441;28;20075;-76
2024/04/02 01:11:20;;;;;;;1.90;1.40;;;;;;;10.13;76.60;97103.28;5054944;28;20098;-75
2024/04/02 01:13:47;;;;;;;3.15;1.20;;;;;;;10.17;76.71;97108.97;5018570;28;20103;-76
2024/04/02 01:16:16;;;;;;;2.17;1.35;;;;;;;10.17;76.80;97114.34;5038275;28;20040;-75
2024/04/02 01:18:45;;;;;;;3.22;1.48;;;;;;;10.03;76.92;97118.59;5038340;28;20032;-75
2024/04/02 01:21:11;;;;;;;1.70;1.35;;;;;;;9.89;77.15;97112.13;5032500;28;20507;-75
2024/04/02 01:23:36;;;;;;;1.88;1.50;;;;;;;9.96;77.49;97136.88;5039195;28;20017;-74
2024/04/02 01:26:01;;;;;;;3.25;1.60;;;;;;;9.84;77.62;97125.56;5039819;28;20036;-75
2024/04/02 01:28:27;;;;;;;2.22;1.40;;;;;;;9.98;77.07;97140.09;5037615;28;20039;-75
2024/04/02 01:30:52;;;;;;;1.65;1.40;;;;;;;9.88;77.15;97140.06;5021095;28;20119;-75
2024/04/02 01:33:17;;;;;;;1.73;1.48;;;;;;;9.90;77.74;97146.81;5037780;28;20028;-75
2024/04/02 01:35:43;;;;;;;2.00;1.40;;;;;;;9.70;77.59;97122.56;5038104;28;20093;-75
2024/04/02 01:38:08;;;;;;;1.85;1.30;;;;;;;9.82;78.10;97141.97;5021067;28;20395;-75
2024/04/02 01:40:33;;;;;;;2.45;1.60;;;;;;;9.83;77.37;97137.38;5034753;28;20040;-75
2024/04/02 01:42:59;;;;;;;3.28;1.42;;;;;;;9.75;77.81;97166.38;5052748;28;20021;-75
2024/04/02 01:45:24;;;;;;;3.42;1.45;;;;;;;9.75;77.53;97152.94;5037647;28;20036;-76
2024/04/02 01:47:49;;;;;;;2.70;1.45;;;;;;;9.75;78.11;97161.00;5015439;28;20043;-76
2024/04/02 01:50:15;;;;;;;1.60;1.40;;;;;;;9.77;77.70;97152.69;5022551;28;20044;-76
2024/04/02 01:52:40;;;;;;;1.98;1.42;;;;;;;9.73;77.27;97155.09;5019924;28;20446;-76
2024/04/02 01:55:05;;;;;;;2.55;1.60;;;;;;;9.71;77.85;97143.78;5032648;28;20036;-75
2024/04/02 01:57:31;;;;;;;1.65;1.52;;;;;;;9.66;78.00;97148.38;5015208;28;20036;-75
2024/04/02 01:59:56;;;;;;;3.70;1.60;;;;;;;9.79;78.11;97172.06;5032562;28;20033;-76
2024/04/02 02:02:22;;;;;;;2.55;1.60;;;;;;;9.68;78.41;97163.13;5034909;28;20040;-75
2024/04/02 02:04:47;;;;;;;1.77;1.60;;;;;;;9.82;78.03;97181.47;5038854;28;20036;-75
2024/04/02 02:07:12;;;;;;;2.90;1.73;;;;;;;9.74;77.78;97167.47;5039176;28;20031;-76
2024/04/02 02:09:38;;;;;;;2.58;1.85;;;;;;;9.68;78.59;97195.41;5019286;28;20044;-77
2024/04/02 02:12:03;;;;;;;2.28;1.52;;;;;;;9.77;78.40;97184.16;5039543;28;20024;-76
2024/04/02 02:14:28;;;;;;;3.47;1.70;;;;;;;9.72;78.17;97183.06;5038608;28;20032;-76
2024/04/02 02:16:54;;;;;;;1.90;1.60;;;;;;;9.70;78.52;97181.72;5019854;28;20033;-75
2024/04/02 02:19:19;;;;;;;3.15;1.75;;;;;;;9.65;78.32;97176.31;5037828;28;20043;-75
2024/04/02 02:21:47;;;;;;;2.83;1.60;;;;;;;9.71;78.18;97197.56;5022829;28;20028;-75
2024/04/02 02:24:13;;;;;;;2.00;1.52;;;;;;;9.64;78.16;97180.88;5038624;28;20029;-75
2024/04/02 02:26:38;;;;;;;3.55;1.83;;;;;;;9.49;78.12;97182.69;5037358;28;20055;-75
2024/04/02 02:29:04;;;;;;;3.03;1.70;;;;;;;9.72;77.81;97201.06;5020088;28;20488;-75
2024/04/02 02:31:29;;;;;;;2.97;1.80;;;;;;;9.53;78.24;97191.84;5020833;28;20082;-76
2024/04/02 02:33:54;;;;;;;2.75;2.00;;;;;;;9.64;78.33;97202.38;5035857;28;20107;-76
2024/04/02 02:36:20;;;;;;;2.10;1.90;;;;;;;9.61;78.43;97212.84;5032742;28;20032;-75
2024/04/02 02:38:46;;;;;;;3.72;1.70;;;;;;;9.64;77.84;97218.50;5038093;28;20128;-76
2024/04/02 02:41:11;;;;;;;1.95;1.60;;;;;;;9.52;78.45;97214.44;5037568;28;20387;-76
2024/04/02 02:43:37;;;;;;;2.83;1.83;;;;;;;9.50;78.89;97217.34;5037571;28;20044;-76
2024/04/02 02:46:02;;;;;;;1.67;1.58;;;;;;;9.63;78.60;97227.66;5020742;28;20024;-75
2024/04/02 02:48:27;;;;;;;3.30;2.00;;;;;;;9.55;78.49;97220.06;5036702;28;20040;-74
2024/04/02 02:50:53;;;;;;;2.97;1.42;;;;;;;9.56;78.25;97224.41;5020648;28;20025;-75
2024/04/02 02:53:18;;;;;;;2.88;1.73;;;;;;;9.48;78.01;97230.25;5037156;28;20467;-75
2024/04/02 02:55:52;;;;;;;2.85;1.52;;;;;;;9.53;78.07;97237.53;5035833;28;20025;-74
2024/04/02 02:58:17;;;;;;;1.95;1.48;;;;;;;9.60;77.99;97238.94;5037774;28;20090;-76
2024/04/02 03:00:43;;;;;;;2.45;1.50;;;;;;;9.55;78.73;97246.94;5057478;28;20032;-74
2024/04/02 03:03:08;;;;;;;1.67;1.40;;;;;;;9.49;78.19;97236.44;5058377;28;20124;-75
2024/04/02 03:05:33;;;;;;;2.15;1.50;;;;;;;9.38;78.60;97245.53;5021671;28;20029;-75
2024/04/02 03:07:59;;;;;;;2.28;1.48;;;;;;;9.48;78.27;97257.13;5042638;28;20029;-74
2024/04/02 03:10:24;;;;;;;2.58;1.70;;;;;;;9.51;78.02;97272.75;5042489;28;20495;-75
2024/04/02 03:12:50;;;;;;;3.72;1.40;;;;;;;9.45;78.31;97257.63;5026956;28;20083;-74
2024/04/02 03:15:16;;;;;;;3.35;1.55;;;;;;;9.55;78.19;97273.84;5079628;28;20021;-74
2024/04/02 03:17:41;;;;;;;2.50;1.50;;;;;;;9.47;78.63;97268.97;5028467;28;20483;-74
2024/04/02 03:20:06;;;;;;;1.85;1.60;;;;;;;9.29;78.01;97237.13;5025649;28;20024;-75
2024/04/02 03:22:32;;;;;;;4.20;1.95;;;;;;;9.49;78.29;97268.69;5042102;28;20121;-76
2024/04/02 03:24:57;;;;;;;4.07;1.58;;;;;;;9.54;77.79;97266.84;5026588;28;20031;-75
2024/04/02 03:27:23;;;;;;;2.58;1.98;;;;;;;9.38;78.75;97278.56;5028064;28;20124;-75
2024/04/02 03:29:48;;;;;;;2.42;1.60;;;;;;;9.29;78.04;97269.38;5042789;28;20392;-75
2024/04/02 03:32:15;;;;;;;2.25;1.50;;;;;;;9.24;78.45;97268.53;5041840;28;20201;-75
2024/04/02 03:34:40;;;;;;;2.63;1.48;;;;;;;9.28;78.63;97277.69;5021602;28;20106;-75
2024/04/02 03:37:05;;;;;;;2.75;1.48;;;;;;;9.34;78.43;97292.75;5025392;28;20049;-74
2024/04/02 03:39:32;;;;;;;1.90;1.33;;;;;;;9.35;78.99;97297.91;5042211;28;20467;-75
2024/04/02 03:41:58;;;;;;;2.78;1.50;;;;;;;9.41;78.42;97288.78;5025788;28;20040;-75
2024/04/02 03:44:23;;;;;;;1.48;1.30;;;;;;;9.30;78.52;97276.38;5072878;28;20036;-77
2024/04/02 03:46:48;;;;;;;5.13;1.65;;;;;;;9.41;78.39;97296.84;5047356;28;20049;-77
2024/04/02 03:49:14;;;;;;;2.95;1.40;;;;;;;9.38;78.34;97294.69;5042995;28;20028;-74
2024/04/02 03:51:39;;;;;;;3.58;1.52;;;;;;;9.47;78.45;97308.47;5047129;28;20043;-75
2024/04/02 03:54:04;;;;;;;3.97;1.50;;;;;;;9.27;78.70;97292.19;5043960;28;21524;-75
2024/04/02 03:56:31;;;;;;;2.92;1.58;;;;;;;9.41;78.35;97299.53;5043742;28;20480;-75
2024/04/02 03:58:56;;;;;;;1.80;1.40;;;;;;;9.28;78.68;97294.63;5043561;28;20035;-75
2024/04/02 04:01:22;;;;;;;2.38;1.55;;;;;;;9.41;78.48;97314.84;5043776;28;20036;-75
2024/04/02 04:03:47;;;;;;;2.20;1.60;;;;;;;9.33;78.34;97302.72;5042935;28;20384;-74
2024/04/02 04:06:13;;;;;;;2.47;1.60;;;;;;;9.42;77.74;97306.56;5043648;28;20086;-75
2024/04/02 04:08:38;;;;;;;1.88;1.40;;;;;;;9.47;77.78;97303.91;5029439;28;20025;-76
2024/04/02 04:11:04;;;;;;;1.77;1.45;;;;;;;9.48;77.88;97310.88;5035628;28;20032;-74
2024/04/02 04:13:29;;;;;;;5.25;4.53;;;;;;;9.62;77.65;97322.78;5039028;28;20472;-74
2024/04/02 04:16:01;;;;;;;21.55;18.90;;;;;;;9.63;77.73;97319.06;5022326;28;20037;-75
2024/04/02 04:18:27;;;;;;;4.35;3.95;;;;;;;9.47;77.99;97309.28;5056216;28;20036;-75
2024/04/02 04:20:57;;;;;;;2.10;1.67;;;;;;;9.65;77.58;97324.16;5023513;28;20020;-75
2024/04/02 04:23:22;;;;;;;3.97;2.10;;;;;;;9.56;77.73;97326.53;5056091;28;20025;-75
2024/04/02 04:25:57;;;;;;;4.28;1.50;;;;;;;9.56;77.96;97333.78;5054392;28;20040;-75
2024/04/02 04:28:24;;;;;;;5.63;2.23;;;;;;;9.56;77.99;97326.53;5030269;28;20613;-75
2024/04/02 04:30:59;;;;;;;2.42;1.83;;;;;;;9.60;77.34;97334.88;5034247;28;20298;-75
2024/04/02 04:33:25;;;;;;;2.25;1.58;;;;;;;9.57;77.50;97330.00;5055675;28;20472;-74
2024/04/02 04:35:52;;;;;;;6.30;5.70;;;;;;;9.57;77.37;97335.38;5055232;28;20040;-75
2024/04/02 04:38:18;;;;;;;3.00;2.20;;;;;;;9.47;77.98;97340.72;5055219;28;20036;-75
2024/04/02 04:40:43;;;;;;;2.85;1.98;;;;;;;9.46;77.75;97329.16;5055958;28;20055;-74
2024/04/02 04:43:11;;;;;;;2.53;1.60;;;;;;;9.61;77.52;97337.28;5056292;28;20605;-75
2024/04/02 04:45:36;;;;;;;3.83;1.80;;;;;;;9.49;77.21;97317.88;5055355;28;20026;-75
2024/04/02 04:48:06;;;;;;;2.00;1.80;;;;;;;9.64;76.78;97336.78;5037024;28;20120;-75
2024/04/02 04:50:32;;;;;;;3.65;3.05;;;;;;;9.47;77.28;97328.09;5038872;28;20062;-74
2024/04/02 04:52:57;;;;;;;6.55;2.85;;;;;;;9.42;76.91;97322.66;5029019;28;20033;-75
2024/04/02 04:55:22;;;;;;;3.15;2.65;;;;;;;9.41;77.26;97331.78;5042674;28;20028;-75
2024/04/02 04:57:48;;;;;;;2.83;2.15;;;;;;;9.43;77.14;97345.78;5052839;28;20047;-75
2024/04/02 05:00:13;;;;;;;3.60;1.80;;;;;;;9.32;77.23;97343.28;5018590;28;20025;-74
2024/04/02 05:02:39;;;;;;;2.95;1.85;;;;;;;9.43;77.03;97351.16;5033929;28;20488;-75
2024/04/02 05:05:06;;;;;;;3.50;2.30;;;;;;;9.44;77.13;97358.16;5020871;28;20029;-77
2024/04/02 05:07:31;;;;;;;3.00;2.70;;;;;;;9.47;76.48;97346.91;5054319;28;20127;-76
2024/04/02 05:09:56;;;;;;;5.78;3.35;;;;;;;9.58;76.85;97364.72;5035257;28;20173;-76
2024/04/02 05:12:22;;;;;;;2.78;2.55;;;;;;;9.50;76.95;97357.13;5072123;28;20032;-76
2024/04/02 05:14:47;;;;;;;3.22;2.58;;;;;;;9.47;76.57;97343.41;5017964;28;20028;-75
2024/04/02 05:17:13;;;;;;;3.95;2.53;;;;;;;9.44;76.90;97355.47;5034096;28;20048;-76
2024/04/02 05:19:38;;;;;;;4.63;2.83;;;;;;;9.41;77.07;97350.59;5037369;28;20020;-77
2024/04/02 05:22:06;;;;;;;13.30;7.55;;;;;;;9.41;76.88;97353.28;5054783;28;20040;-76
2024/04/02 05:24:32;;;;;;;9.85;5.88;;;;;;;9.56;76.55;97372.22;5038019;28;20107;-76
2024/04/02 05:26:58;;;;;;;2.65;2.20;;;;;;;9.56;76.20;97355.28;5053963;28;20392;-76
2024/04/02 05:29:23;;;;;;;4.88;2.03;;;;;;;9.67;76.45;97356.97;5037119;28;20036;-76
2024/04/02 05:31:48;;;;;;;3.42;2.42;;;;;;;9.71;76.06;97376.88;5024870;28;20117;-76
2024/04/02 05:34:14;;;;;;;4.20;2.65;;;;;;;9.55;76.35;97354.47;5053983;28;20024;-74
2024/04/02 05:36:39;;;;;;;7.13;4.70;;;;;;;9.59;76.85;97385.13;5046726;28;20496;-78
2024/04/02 05:39:05;;;;;;;2.70;1.50;;;;;;;9.51;76.86;97369.50;5036604;28;20123;-75
2024/04/02 05:41:30;;;;;;;3.17;1.58;;;;;;;9.49;76.62;97381.56;5037344;28;20050;-76
2024/04/02 05:43:56;;;;;;;3.40;1.88;;;;;;;9.48;77.52;97379.94;5037123;28;20438;-74
2024/04/02 05:46:21;;;;;;;2.45;1.60;;;;;;;9.44;77.20;97395.78;5036968;28;20064;-74
2024/04/02 05:48:46;;;;;;;2.95;1.70;;;;;;;9.35;77.13;97375.81;5020483;28;20020;-76
2024/04/02 05:51:12;;;;;;;2.85;1.85;;;;;;;9.41;77.28;97374.78;5033605;28;20036;-75
2024/04/02 05:53:38;;;;;;;2.88;1.60;;;;;;;9.47;77.03;97372.97;5052380;28;20070;-75
2024/04/02 05:56:05;;;;;;;2.30;1.58;;;;;;;9.43;77.62;97393.31;5019947;28;20473;-75
2024/04/02 05:58:31;;;;;;;3.53;1.70;;;;;;;9.31;77.46;97388.13;5036900;28;20024;-76
2024/04/02 06:01:06;;;;;;;1.90;1.60;;;;;;;9.44;76.25;97374.28;5032746;28;20648;-76
2024/04/02 06:03:31;;;;;;;2.70;1.60;;;;;;;9.63;76.77;97398.88;5048149;28;20090;-77
2024/04/02 06:05:57;;;;;;;2.50;1.38;;;;;;;9.66;75.48;97377.66;5019867;28;20037;-75
2024/04/02 06:08:23;;;;;;;2.40;1.50;;;;;;;9.46;76.46;97399.00;5037125;28;20043;-76
2024/04/02 06:10:48;;;;;;;1.95;1.38;;;;;;;9.48;75.87;97391.50;5053345;28;20032;-75
2024/04/02 06:13:14;;;;;;;2.90;1.60;;;;;;;9.60;75.30;97383.25;5053296;28;20036;-76
2024/04/02 06:15:39;;;;;;;1.40;1.30;;;;;;;9.59;75.81;97401.25;5053646;28;20031;-76
2024/04/02 06:18:05;;;;;;;3.08;1.50;;;;;;;9.59;75.18;97398.56;5051134;28;20115;-76
2024/04/02 06:20:31;;;;;;;2.47;1.60;;;;;;;9.74;75.34;97406.75;5019539;28;20023;-77
2024/04/02 06:22:56;;;;;;;2.42;1.40;;;;;;;9.82;75.27;97402.78;5017133;28;20033;-76
2024/04/02 06:25:21;;;;;;;2.33;1.30;;;;;;;9.89;75.07;97402.56;5033497;28;20082;-77
2024/04/02 06:27:47;;;;;;;2.08;1.50;;;;;;;9.89;74.75;97410.63;5036382;28;20043;-76
2024/04/02 06:30:12;;;;;;;2.00;1.17;;;;;;;9.72;75.13;97406.22;5029729;28;20029;-76
2024/04/02 06:32:37;;;;;;;2.35;1.45;;;;;;;9.91;74.33;97406.63;5040606;28;20044;-76
2024/04/02 06:35:03;;;;;;;3.05;1.52;;;;;;;9.87;74.41;97400.09;5057214;28;20177;-76
2024/04/02 06:37:30;;;;;;;2.05;1.30;;;;;;;9.87;75.28;97404.69;5037950;28;20052;-76
2024/04/02 06:39:55;;;;;;;3.35;1.70;;;;;;;9.74;75.96;97406.75;5031505;28;20139;-76
2024/04/02 06:42:21;;;;;;;3.10;1.67;;;;;;;9.83;76.06;97425.09;5040485;28;20127;-77
2024/04/02 06:44:46;;;;;;;3.15;1.60;;;;;;;9.75;76.45;97408.38;5024168;28;20035;-77
2024/04/02 06:47:11;;;;;;;2.30;1.58;;;;;;;9.77;76.88;97405.44;5024030;28;20095;-77
2024/04/02 06:49:37;;;;;;;2.42;1.58;;;;;;;9.65;76.91;97415.56;5040049;28;20029;-77
2024/04/02 06:52:03;;;;;;;5.68;3.25;;;;;;;9.65;78.08;97424.44;5025201;28;20044;-76
2024/04/02 06:54:28;;;;;;;4.35;2.67;;;;;;;9.65;78.12;97412.88;5020463;28;20025;-76
2024/04/02 06:56:55;;;;;;;13.07;9.25;;;;;;;9.77;78.20;97410.00;5040121;28;20047;-76
2024/04/02 06:59:21;;;;;;;2.90;1.85;;;;;;;9.60;79.33;97416.34;5040091;28;20030;-76
2024/04/02 07:01:46;;;;;;;4.05;2.28;;;;;;;9.56;79.02;97415.22;5036776;28;20040;-77
2024/04/02 07:04:11;;;;;;;1.88;1.60;;;;;;;9.56;79.19;97417.94;5020217;28;20025;-76
2024/04/02 07:06:38;;;;;;;3.03;1.77;;;;;;;9.59;79.29;97436.19;5055701;28;20426;-76
2024/04/02 07:09:04;;;;;;;2.58;1.80;;;;;;;9.67;79.66;97441.13;5039832;28;20416;-77
2024/04/02 07:11:29;;;;;;;3.42;1.70;;;;;;;9.27;79.59;97370.91;5084868;22;20173;-75
2024/04/02 07:13:54;;;;;;;4.07;1.80;;;;;;;9.68;80.04;97437.34;5028602;28;20049;-76
2024/04/02 07:16:20;;;;;;;2.40;1.95;;;;;;;9.61;80.35;97441.34;4993763;28;20047;-75
2024/04/02 07:18:45;;;;;;;3.00;1.90;;;;;;;9.61;80.13;97423.31;5000365;28;20527;-75
2024/04/02 07:21:11;;;;;;;2.90;1.90;;;;;;;9.68;80.68;97450.78;5000503;28;20082;-74
2024/04/02 07:23:37;;;;;;;2.95;2.25;;;;;;;9.54;81.11;97449.63;4997144;28;20476;-75
2024/04/02 07:26:03;;;;;;;3.30;2.60;;;;;;;9.41;80.96;97425.84;4990708;28;20072;-75
2024/04/02 07:28:29;;;;;;;4.25;2.40;;;;;;;9.42;81.70;97451.66;4988828;28;20061;-75
2024/04/02 07:30:55;;;;;;;4.38;2.20;;;;;;;9.61;81.61;97471.69;4960333;28;20038;-74
2024/04/02 07:33:20;;;;;;;3.15;2.25;;;;;;;9.38;81.80;97445.16;4991304;28;20022;-75
2024/04/02 07:35:46;;;;;;;2.75;2.20;;;;;;;9.63;81.38;97456.16;4979632;28;20053;-74
2024/04/02 07:38:12;;;;;;;2.95;1.70;;;;;;;9.61;81.46;97474.38;4993292;28;20092;-74
2024/04/02 07:40:38;;;;;;;5.70;1.88;;;;;;;9.53;81.37;97480.25;4991834;28;20035;-74
2024/04/02 07:43:05;;;;;;;4.25;1.70;;;;;;;9.49;81.29;97468.41;4978373;28;20031;-74
2024/04/02 07:45:31;;;;;;;4.05;1.90;;;;;;;9.63;80.83;97480.34;4991926;28;20570;-74
2024/04/02 07:47:57;;;;;;;1.95;1.58;;;;;;;9.53;80.53;97458.75;4979826;28;20109;-74
2024/04/02 07:50:22;;;;;;;1.75;1.50;;;;;;;9.69;79.75;97487.38;4985903;28;20038;-74
2024/04/02 07:52:50;;;;;;;6.50;1.80;;;;;;;9.74;80.02;97476.66;4985069;28;20030;-74
2024/04/02 07:55:16;;;;;;;3.78;1.40;;;;;;;9.70;79.18;97480.94;4986239;28;20056;-74
2024/04/02 07:57:42;;;;;;;3.97;1.35;;;;;;;9.73;79.07;97485.78;4991785;28;20137;-74
2024/04/02 08:00:08;;;;;;;1.30;1.20;;;;;;;9.77;79.11;97474.53;4994069;28;20039;-74
2024/04/02 08:02:34;;;;;;;2.08;1.40;;;;;;;9.75;78.18;97478.28;4989851;28;20045;-75
2024/04/02 08:05:00;;;;;;;1.67;1.23;;;;;;;9.54;78.50;97468.44;4989217;28;20034;-75
2024/04/02 08:07:25;;;;;;;2.00;1.40;;;;;;;9.78;78.51;97493.09;4980191;28;20394;-75
2024/04/02 08:09:51;;;;;;;3.05;1.30;;;;;;;9.79;78.46;97488.53;4979807;28;20033;-75
2024/04/02 08:12:16;;;;;;;2.67;1.75;;;;;;;9.77;78.91;97475.34;4988076;28;20504;-75
2024/04/02 08:14:41;;;;;;;4.30;1.50;;;;;;;9.78;78.26;97471.56;4986134;28;20109;-75
2024/04/02 08:17:07;;;;;;;2.72;1.38;;;;;;;9.99;77.30;97494.88;4988027;28;20044;-74
2024/04/02 08:19:32;;;;;;;2.85;1.27;;;;;;;10.12;77.86;97491.78;5008250;28;20108;-77
2024/04/02 08:21:58;;;;;;;3.72;1.58;;;;;;;10.15;77.47;97487.78;4980014;28;20503;-77
2024/04/02 08:24:26;;;;;;;6.45;1.73;;;;;;;10.38;76.82;97487.38;4971619;28;20117;-74
2024/04/02 08:26:51;;;;;;;2.47;1.35;;;;;;;10.54;76.56;97490.97;4990367;28;20037;-76
2024/04/02 08:29:17;;;;;;;1.95;1.10;;;;;;;10.67;74.37;97512.03;4991005;28;20038;-75
2024/04/02 08:31:42;;;;;;;2.05;1.15;;;;;;;10.67;75.31;97520.91;4975524;28;20088;-76
2024/04/02 08:34:08;;;;;;;4.75;1.27;;;;;;;10.78;75.13;97521.78;5004226;28;20041;-76
2024/04/02 08:36:33;;;;;;;2.28;0.90;;;;;;;10.57;74.98;97498.53;4986605;28;20069;-75
2024/04/02 08:38:58;;;;;;;1.63;1.17;;;;;;;10.61;74.14;97507.69;4993054;28;20041;-74
2024/04/02 08:41:26;;;;;;;2.63;1.30;;;;;;;10.38;74.52;97525.06;4973360;28;20036;-75
2024/04/02 08:43:56;;;;;;;5.22;1.60;;;;;;;10.40;74.91;97539.88;4977962;28;20123;-76
2024/04/02 08:46:23;;;;;;;1.83;1.13;;;;;;;10.32;75.49;97542.22;4990105;28;20036;-74
2024/04/02 08:48:51;;;;;;;2.58;1.02;;;;;;;10.28;75.05;97546.50;4995155;28;20134;-75
2024/04/02 08:51:17;;;;;;;1.63;1.10;;;;;;;10.36;74.97;97570.28;4980155;28;20116;-75
2024/04/02 08:53:42;;;;;;;1.77;1.00;;;;;;;10.28;74.77;97547.34;4975374;28;20386;-75
2024/04/02 08:56:08;;;;;;;1.00;0.90;;;;;;;10.07;76.87;97566.22;4990883;28;20049;-75
2024/04/02 08:58:33;;;;;;;1.77;0.85;;;;;;;9.90;77.21;97554.75;4972454;28;20033;-75
2024/04/02 09:01:02;;;;;;;1.35;1.08;;;;;;;9.79;78.84;97582.63;4991202;28;20076;-75
2024/04/02 09:03:28;;;;;;;1.38;1.20;;;;;;;9.75;79.38;97575.06;4975626;28;20030;-75
2024/04/02 09:05:54;;;;;;;1.88;1.25;;;;;;;9.80;79.83;97571.66;4978351;28;20060;-75
2024/04/02 09:08:19;;;;;;;1.30;1.20;;;;;;;9.90;80.33;97592.41;4977027;28;20062;-74
2024/04/02 09:10:45;;;;;;;1.13;1.02;;;;;;;9.79;80.45;97588.00;4980678;28;20053;-74
2024/04/02 09:13:10;;;;;;;1.60;1.15;;;;;;;9.86;79.77;97583.25;5002312;28;20033;-75
2024/04/02 09:15:35;;;;;;;1.65;1.15;;;;;;;9.75;80.13;97591.19;4978784;28;20069;-75
2024/04/02 09:18:01;;;;;;;1.55;1.20;;;;;;;9.64;80.77;97583.28;4997815;28;20026;-74
2024/04/02 09:20:26;;;;;;;1.25;1.10;;;;;;;9.81;80.59;97594.78;4998378;28;20129;-74
2024/04/02 09:22:52;;;;;;;3.28;1.30;;;;;;;9.72;80.62;97583.66;4978630;28;20107;-75
2024/04/02 09:25:17;;;;;;;2.05;1.30;;;;;;;10.07;80.22;97609.28;4991071;28;20031;-74
2024/04/02 09:27:43;;;;;;;2.28;1.33;;;;;;;10.04;80.09;97599.00;4959359;28;20457;-75
2024/04/02 09:30:09;;;;;;;2.53;1.50;;;;;;;10.24;80.79;97583.09;4982834;28;20049;-75
2024/04/02 09:32:38;;;;;;;1.45;1.30;;;;;;;10.24;80.14;97593.84;4961298;28;20018;-75
2024/04/02 09:35:13;;;;;;;1.80;1.40;;;;;;;10.29;79.07;97585.81;4988144;28;20045;-75
2024/04/02 09:37:41;;;;;;;1.20;1.10;;;;;;;10.23;78.54;97592.22;4994949;28;20042;-75
2024/04/02 09:40:06;;;;;;;4.25;1.30;;;;;;;10.17;79.47;97594.06;5006647;28;20080;-75
2024/04/02 09:42:33;;;;;;;2.80;1.60;;;;;;;10.31;79.21;97594.44;4989992;28;20498;-75
2024/04/02 09:44:59;;;;;;;4.28;1.55;;;;;;;10.17;79.03;97588.69;5007233;28;20060;-75
2024/04/02 09:47:26;;;;;;;3.00;1.88;;;;;;;10.28;77.91;97594.94;4989888;28;20108;-76
2024/04/02 09:49:52;;;;;;;1.75;1.45;;;;;;;10.25;78.45;97595.47;4975969;28;20026;-76
2024/04/02 09:52:18;;;;;;;2.90;1.30;;;;;;;10.45;78.87;97610.97;4975401;28;20045;-75
2024/04/02 09:54:45;;;;;;;3.65;1.83;;;;;;;10.32;79.11;97596.06;4983136;28;20042;-75
2024/04/02 09:57:11;;;;;;;4.13;1.30;;;;;;;10.21;77.73;97605.94;4991338;28;20049;-76
2024/04/02 09:59:37;;;;;;;2.03;1.17;;;;;;;10.32;77.56;97617.59;4957405;28;20030;-76
2024/04/02 10:02:03;;;;;;;1.40;1.10;;;;;;;10.22;76.54;97579.84;4978688;28;20038;-76
2024/04/02 10:04:28;;;;;;;1.38;0.90;;;;;;;10.34;76.22;97581.28;4978413;28;20084;-76
2024/04/02 10:06:56;;;;;;;1.10;0.90;;;;;;;10.32;75.46;97593.38;4966436;28;20485;-76
2024/04/02 10:09:22;;;;;;;0.85;0.85;;;;;;;10.55;74.58;97611.06;4985676;28;20037;-75
2024/04/02 10:11:47;;;;;;;1.15;0.73;;;;;;;10.43;76.15;97603.16;4998665;28;20508;-76
2024/04/02 10:14:14;;;;;;;0.93;0.80;;;;;;;10.24;75.58;97599.22;4980281;28;20026;-76
2024/04/02 10:16:44;;;;;;;1.20;0.90;;;;;;;10.30;77.04;97600.88;4988727;28;20068;-76
2024/04/02 10:19:20;;;;;;;1.00;0.90;;;;;;;10.36;77.53;97606.03;4974113;28;20053;-76
2024/04/02 10:21:49;;;;;;;2.00;1.02;;;;;;;10.27;78.44;97604.09;5018315;28;20055;-76
2024/04/02 10:24:15;;;;;;;4.35;1.60;;;;;;;10.39;79.78;97612.78;4992158;28;20040;-75
2024/04/02 10:26:41;;;;;;;2.60;1.30;;;;;;;10.39;79.51;97607.41;4974203;28;20042;-75
2024/04/02 10:29:07;;;;;;;1.42;1.33;;;;;;;10.25;80.88;97600.84;5005288;28;20026;-75
2024/04/02 10:31:42;;;;;;;3.65;1.70;;;;;;;10.49;79.61;97618.28;4999409;28;20066;-75
2024/04/02 10:34:09;;;;;;;3.33;1.88;;;;;;;10.50;79.80;97606.44;4991904;28;20049;-76
2024/04/02 10:36:36;;;;;;;3.58;1.60;;;;;;;10.71;79.94;97618.94;4982472;28;20044;-75
2024/04/02 10:39:03;;;;;;;3.50;1.63;;;;;;;10.75;78.03;97609.31;4982311;28;20601;-75
2024/04/02 10:41:33;;;;;;;6.13;1.90;;;;;;;10.76;78.97;97597.44;4969646;28;20046;-75
2024/04/02 10:43:58;;;;;;;3.90;1.60;;;;;;;10.99;78.09;97615.91;4982916;28;20040;-75
2024/04/02 10:46:27;;;;;;;3.40;1.58;;;;;;;11.11;77.23;97610.31;4972450;28;20030;-75
2024/04/02 10:48:57;;;;;;;3.00;1.75;;;;;;;11.06;75.24;97586.84;4984653;28;20114;-74
2024/04/02 10:51:24;;;;;;;3.90;1.63;;;;;;;11.12;76.38;97606.53;4984705;28;20054;-75
2024/04/02 10:53:52;;;;;;;4.93;1.83;;;;;;;11.52;74.91;97616.69;5015299;28;20042;-75
2024/04/02 10:56:18;;;;;;;2.40;1.30;;;;;;;11.51;74.34;97615.06;4988872;28;20481;-75
2024/04/02 10:58:43;;;;;;;3.10;1.42;;;;;;;11.31;72.55;97586.16;4981827;28;20069;-75
2024/04/02 11:01:09;;;;;;;5.57;1.80;;;;;;;11.45;72.59;97618.81;4989172;28;20080;-75
2024/04/02 11:03:34;;;;;;;4.50;1.77;;;;;;;11.62;70.15;97592.47;4980362;28;20038;-75
2024/04/02 11:06:01;;;;;;;2.92;1.70;;;;;;;11.54;71.15;97585.69;4986505;28;20080;-75
2024/04/02 11:08:27;;;;;;;6.15;1.85;;;;;;;11.82;72.11;97611.41;4975062;28;20576;-75
2024/04/02 11:10:52;;;;;;;4.18;1.70;;;;;;;11.65;71.21;97600.00;5010300;28;20109;-77
2024/04/02 11:13:25;;;;;;;4.22;1.70;;;;;;;11.62;71.54;97589.78;4981220;28;20072;-75
2024/04/02 11:15:51;;;;;;;3.28;1.58;;;;;;;11.58;71.31;97599.44;4987999;28;20090;-74
2024/04/02 11:18:24;;;;;;;5.55;2.15;;;;;;;11.46;71.58;97606.97;4981629;28;20026;-74
2024/04/02 11:20:55;;;;;;;5.22;2.10;;;;;;;11.39;73.35;97617.19;5007437;28;20041;-75
2024/04/02 11:26:14;;;;;;;3.20;1.92;;;;;;;11.66;73.32;97593.53;4989241;28;20038;-76
2024/04/02 11:28:40;;;;;;;3.47;1.75;;;;;;;11.29;72.89;97592.88;4984928;28;20029;-75
2024/04/02 11:31:07;;;;;;;4.75;1.90;;;;;;;11.41;72.68;97588.88;5000897;28;20389;-75
2024/04/02 11:33:33;;;;;;;5.47;1.90;;;;;;;11.61;73.05;97607.00;4996647;28;20444;-76
2024/04/02 11:35:59;;;;;;;5.57;1.90;;;;;;;11.69;71.02;97611.94;4990529;28;20031;-76